createdAt,value
2023-05-20T00:01:34.628Z,3.65
2023-05-20T00:04:01.347Z,3.85
2023-05-20T00:06:27.940Z,3.50
2023-05-20T00:08:55.737Z,3.85
2023-05-20T00:11:22.241Z,3.20
2023-05-20T00:13:49.692Z,3.80
2023-05-20T00:16:16.287Z,3.72
2023-05-20T00:18:42.848Z,4.07
2023-05-20T00:21:09.380Z,3.75
2023-05-20T00:23:35.956Z,3.60
2023-05-20T00:26:02.490Z,4.28
2023-05-20T00:28:28.982Z,3.30
2023-05-20T00:30:56.465Z,3.55
2023-05-20T00:33:22.940Z,3.55
2023-05-20T00:35:49.571Z,3.55
2023-05-20T00:38:16.098Z,3.65
2023-05-20T00:40:42.577Z,4.15
2023-05-20T00:43:11.424Z,3.78
2023-05-20T00:45:38.848Z,4.10
2023-05-20T00:48:07.226Z,3.33
2023-05-20T00:50:33.955Z,3.63
2023-05-20T00:53:00.635Z,3.88
2023-05-20T00:55:27.471Z,4.00
2023-05-20T00:57:54.903Z,4.50
2023-05-20T01:00:21.441Z,4.30
2023-05-20T01:02:48.157Z,4.22
2023-05-20T01:05:14.829Z,3.63
2023-05-20T01:07:41.978Z,3.97
2023-05-20T01:10:09.659Z,4.10
2023-05-20T01:12:42.640Z,4.10
2023-05-20T01:15:11.297Z,4.35
2023-05-20T01:17:47.702Z,4.38
2023-05-20T01:20:15.260Z,4.63
2023-05-20T01:22:48.200Z,4.40
2023-05-20T01:25:14.790Z,4.43
2023-05-20T01:27:41.802Z,4.70
2023-05-20T01:30:08.939Z,4.55
2023-05-20T01:32:41.131Z,5.07
2023-05-20T01:35:08.842Z,4.40
2023-05-20T01:37:40.989Z,4.55
2023-05-20T01:40:09.592Z,5.50
2023-05-20T01:42:38.907Z,4.53
2023-05-20T01:45:06.239Z,4.53
2023-05-20T01:47:32.790Z,4.88
2023-05-20T01:49:59.327Z,4.57
2023-05-20T01:52:25.961Z,5.13
2023-05-20T01:54:53.596Z,4.50
2023-05-20T01:57:21.935Z,4.68
2023-05-20T01:59:48.526Z,4.80
2023-05-20T02:02:15.480Z,4.90
2023-05-20T02:04:48.063Z,4.70
2023-05-20T02:07:18.934Z,5.80
2023-05-20T02:09:47.690Z,5.68
2023-05-20T02:12:17.147Z,4.07
2023-05-20T02:14:45.573Z,5.00
2023-05-20T02:17:12.861Z,4.43
2023-05-20T02:19:41.986Z,5.20
2023-05-20T02:22:08.560Z,5.97
2023-05-20T02:27:34.185Z,5.22
2023-05-20T02:30:01.246Z,4.75
2023-05-20T02:32:28.982Z,4.90
2023-05-20T02:34:55.748Z,5.07
2023-05-20T02:37:22.269Z,4.88
2023-05-20T02:39:49.312Z,4.70
2023-05-20T02:42:15.912Z,4.60
2023-05-20T02:44:45.486Z,5.50
2023-05-20T02:47:14.145Z,4.70
2023-05-20T02:49:40.791Z,5.18
2023-05-20T02:52:08.848Z,5.07
2023-05-20T02:54:35.349Z,5.47
2023-05-20T02:57:02.306Z,5.10
2023-05-20T02:59:28.792Z,5.97
2023-05-20T03:01:55.356Z,7.00
2023-05-20T03:04:21.992Z,6.82
2023-05-20T03:06:52.847Z,6.53
2023-05-20T03:09:19.608Z,6.70
2023-05-20T03:11:47.672Z,6.22
2023-05-20T03:14:14.216Z,6.43
2023-05-20T03:16:41.144Z,6.68
2023-05-20T03:19:07.804Z,6.03
2023-05-20T03:21:35.456Z,6.38
2023-05-20T03:24:01.940Z,7.35
2023-05-20T03:26:28.546Z,6.43
2023-05-20T03:28:57.030Z,6.70
2023-05-20T03:31:23.606Z,8.18
2023-05-20T03:33:50.087Z,6.50
2023-05-20T03:36:20.984Z,7.00
2023-05-20T03:38:47.499Z,7.72
2023-05-20T03:41:14.078Z,8.15
2023-05-20T03:43:40.649Z,6.90
2023-05-20T03:46:08.253Z,7.15
2023-05-20T03:48:34.863Z,8.43
2023-05-20T03:51:01.977Z,7.00
2023-05-20T03:53:28.602Z,7.28
2023-05-20T03:55:55.173Z,6.32
2023-05-20T03:58:22.270Z,7.68
2023-05-20T04:00:49.332Z,6.75
2023-05-20T04:03:15.860Z,6.10
2023-05-20T04:05:42.425Z,6.68
2023-05-20T04:08:09.928Z,7.15
2023-05-20T04:10:36.833Z,6.85
2023-05-20T04:13:03.442Z,7.28
2023-05-20T04:15:30.811Z,7.15
2023-05-20T04:17:57.381Z,6.57
2023-05-20T04:20:24.437Z,6.80
2023-05-20T04:22:51.148Z,7.60
2023-05-20T04:25:18.066Z,8.50
2023-05-20T04:27:44.754Z,7.90
2023-05-20T04:30:12.108Z,6.95
2023-05-20T04:32:38.861Z,8.95
2023-05-20T04:35:11.492Z,6.47
2023-05-20T04:37:38.443Z,7.60
2023-05-20T04:40:12.599Z,7.28
2023-05-20T04:42:39.711Z,6.93
2023-05-20T04:45:08.792Z,6.55
2023-05-20T04:47:39.328Z,7.28
2023-05-20T04:50:10.605Z,7.38
2023-05-20T04:52:42.026Z,7.30
2023-05-20T04:55:10.271Z,6.90
2023-05-20T04:57:39.629Z,6.35
2023-05-20T05:00:07.906Z,7.13
2023-05-20T05:02:35.904Z,6.43
2023-05-20T05:05:02.561Z,6.78
2023-05-20T05:07:30.195Z,6.57
2023-05-20T05:09:56.728Z,6.97
2023-05-20T05:12:23.570Z,6.78
2023-05-20T05:14:50.129Z,6.82
2023-05-20T05:17:16.701Z,7.13
2023-05-20T05:19:43.259Z,6.97
2023-05-20T05:22:09.770Z,6.50
2023-05-20T05:24:36.242Z,6.93
2023-05-20T05:27:02.770Z,6.57
2023-05-20T05:29:29.300Z,5.85
2023-05-20T05:31:56.036Z,6.53
2023-05-20T05:34:22.588Z,7.45
2023-05-20T05:36:49.112Z,6.68
2023-05-20T05:39:15.753Z,8.13
2023-05-20T05:41:42.233Z,6.40
2023-05-20T05:44:08.730Z,6.68
2023-05-20T05:46:35.244Z,8.10
2023-05-20T05:49:01.817Z,6.95
2023-05-20T05:51:29.087Z,8.00
2023-05-20T05:53:56.142Z,7.03
2023-05-20T05:56:22.640Z,7.72
2023-05-20T05:58:49.409Z,7.00
2023-05-20T06:01:16.134Z,6.93
2023-05-20T06:03:42.830Z,7.00
2023-05-20T06:06:09.503Z,6.90
2023-05-20T06:08:36.003Z,6.07
2023-05-20T06:11:02.683Z,6.68
2023-05-20T06:13:29.236Z,7.75
2023-05-20T06:15:55.739Z,6.22
2023-05-20T06:18:22.215Z,6.80
2023-05-20T06:20:55.702Z,6.50
2023-05-20T06:23:22.235Z,6.70
2023-05-20T06:25:49.235Z,7.55
2023-05-20T06:28:15.722Z,7.22
2023-05-20T06:30:42.360Z,7.10
2023-05-20T06:33:08.937Z,7.47
2023-05-20T06:35:35.821Z,7.13
2023-05-20T06:38:03.103Z,6.95
2023-05-20T06:40:29.599Z,7.78
2023-05-20T06:42:56.216Z,8.07
2023-05-20T06:45:22.826Z,7.13
2023-05-20T06:47:50.068Z,7.35
2023-05-20T06:50:16.710Z,7.47
2023-05-20T06:52:43.298Z,8.02
2023-05-20T06:55:10.329Z,7.65
2023-05-20T06:57:36.983Z,6.63
2023-05-20T07:00:05.936Z,6.70
2023-05-20T07:02:33.797Z,6.20
2023-05-20T07:05:00.365Z,6.53
2023-05-20T07:07:26.890Z,6.40
2023-05-20T07:09:55.034Z,6.85
2023-05-20T07:12:21.518Z,6.93
2023-05-20T07:14:50.189Z,7.03
2023-05-20T07:17:16.732Z,6.40
2023-05-20T07:19:43.384Z,7.00
2023-05-20T07:22:09.941Z,6.43
2023-05-20T07:24:36.830Z,6.95
2023-05-20T07:27:04.028Z,7.63
2023-05-20T07:29:31.735Z,7.38
2023-05-20T07:31:58.416Z,7.15
2023-05-20T07:34:25.029Z,7.20
2023-05-20T07:36:51.711Z,6.88
2023-05-20T07:39:18.196Z,7.07
2023-05-20T07:41:44.823Z,7.90
2023-05-20T07:44:12.683Z,7.40
2023-05-20T07:46:40.077Z,6.53
2023-05-20T07:49:06.633Z,6.55
2023-05-20T07:51:33.169Z,7.10
2023-05-20T07:53:59.903Z,7.13
2023-05-20T07:56:26.486Z,6.22
2023-05-20T07:58:55.338Z,7.20
2023-05-20T08:01:22.135Z,6.28
2023-05-20T08:03:48.663Z,6.93
2023-05-20T08:06:15.792Z,7.20
2023-05-20T08:08:43.075Z,8.50
2023-05-20T08:11:10.115Z,5.55
2023-05-20T08:13:37.696Z,7.00
2023-05-20T08:16:05.830Z,6.97
2023-05-20T08:18:34.190Z,8.07
2023-05-20T08:21:00.913Z,7.55
2023-05-20T08:23:27.437Z,7.32
2023-05-20T08:25:53.950Z,7.22
2023-05-20T08:28:22.755Z,7.18
2023-05-20T08:30:50.265Z,8.55
2023-05-20T08:33:17.813Z,6.82
2023-05-20T08:35:44.366Z,7.03
2023-05-20T08:38:10.883Z,8.65
2023-05-20T08:40:37.374Z,6.93
2023-05-20T08:43:04.535Z,7.38
2023-05-20T08:45:35.051Z,8.10
2023-05-20T08:48:02.787Z,7.38
2023-05-20T08:50:29.318Z,7.35
2023-05-20T08:52:57.993Z,7.82
2023-05-20T08:55:37.930Z,7.15
2023-05-20T08:58:05.233Z,8.52
2023-05-20T09:00:32.215Z,8.23
2023-05-20T09:03:01.335Z,7.35
2023-05-20T09:05:28.106Z,8.13
2023-05-20T09:08:06.470Z,9.05
2023-05-20T09:10:33.657Z,8.40
2023-05-20T09:13:04.479Z,7.70
2023-05-20T09:15:32.518Z,8.98
2023-05-20T09:18:03.997Z,7.85
2023-05-20T09:20:32.339Z,7.97
2023-05-20T09:23:00.532Z,7.45
2023-05-20T09:25:29.016Z,8.02
2023-05-20T09:27:56.674Z,8.75
2023-05-20T09:30:23.864Z,8.68
2023-05-20T09:32:58.096Z,8.13
2023-05-20T09:35:28.184Z,8.00
2023-05-20T09:37:57.353Z,7.80
2023-05-20T09:40:28.289Z,8.65
2023-05-20T09:43:01.703Z,7.60
2023-05-20T09:45:28.602Z,8.40
2023-05-20T09:47:56.828Z,7.53
2023-05-20T09:50:24.790Z,7.63
2023-05-20T09:52:52.731Z,7.35
2023-05-20T09:55:21.002Z,8.00
2023-05-20T09:57:47.516Z,8.07
2023-05-20T10:00:17.380Z,8.55
2023-05-20T10:02:46.473Z,8.35
2023-05-20T10:05:25.867Z,8.20
2023-05-20T10:07:59.900Z,7.43
2023-05-20T10:11:05.897Z,8.50
2023-05-20T10:13:53.212Z,7.68
2023-05-20T10:16:37.920Z,7.60
2023-05-20T10:19:23.208Z,8.75
2023-05-20T10:22:04.473Z,7.32
2023-05-20T10:24:33.646Z,7.78
2023-05-20T10:27:03.676Z,6.78
2023-05-20T10:29:30.716Z,7.22
2023-05-20T10:31:57.293Z,6.47
2023-05-20T10:34:23.961Z,7.65
2023-05-20T10:36:57.556Z,7.50
2023-05-20T10:39:29.492Z,7.45
2023-05-20T10:42:09.426Z,8.65
2023-05-20T10:44:46.059Z,7.70
2023-05-20T10:49:47.406Z,7.13
2023-05-20T10:52:14.546Z,6.95
2023-05-20T10:54:47.723Z,6.57
2023-05-20T10:57:15.533Z,7.50
2023-05-20T10:59:42.349Z,6.47
2023-05-20T11:02:12.621Z,6.88
2023-05-20T11:04:39.603Z,7.10
2023-05-20T11:07:06.267Z,6.90
2023-05-20T11:09:33.974Z,5.97
2023-05-20T11:12:00.821Z,7.25
2023-05-20T11:14:30.206Z,6.10
2023-05-20T11:16:58.745Z,6.78
2023-05-20T11:19:26.868Z,6.85
2023-05-20T11:21:54.036Z,5.65
2023-05-20T11:24:28.706Z,6.60
2023-05-20T11:26:57.577Z,6.00
2023-05-20T11:29:26.565Z,7.35
2023-05-20T11:31:53.184Z,6.88
2023-05-20T11:34:25.780Z,6.38
2023-05-20T11:36:59.158Z,7.32
2023-05-20T11:39:29.973Z,6.13
2023-05-20T11:41:57.692Z,6.45
2023-05-20T11:44:24.814Z,6.70
2023-05-20T11:46:51.354Z,6.30
2023-05-20T11:49:17.905Z,5.97
2023-05-20T11:51:45.520Z,6.00
2023-05-20T11:54:12.162Z,5.63
2023-05-20T11:56:41.420Z,5.68
2023-05-20T11:59:10.618Z,6.00
2023-05-20T12:01:43.210Z,6.35
2023-05-20T12:04:10.435Z,5.78
2023-05-20T12:06:37.485Z,6.32
2023-05-20T12:09:08.782Z,6.03
2023-05-20T12:11:42.478Z,5.72
2023-05-20T12:14:09.742Z,6.25
2023-05-20T12:16:37.399Z,5.97
2023-05-20T12:19:04.525Z,5.25
2023-05-20T12:21:31.610Z,6.10
2023-05-20T12:24:01.109Z,5.60
2023-05-20T12:26:28.766Z,5.05
2023-05-20T12:28:56.228Z,5.85
2023-05-20T12:31:22.873Z,5.45
2023-05-20T12:33:49.525Z,5.70
2023-05-20T12:36:16.426Z,5.65
2023-05-20T12:38:43.303Z,5.80
2023-05-20T12:41:09.888Z,5.75
2023-05-20T12:43:37.621Z,5.32
2023-05-20T12:46:06.592Z,5.68
2023-05-20T12:48:33.195Z,6.00
2023-05-20T12:51:00.117Z,5.10
2023-05-20T12:53:26.582Z,5.65
2023-05-20T12:55:53.345Z,5.60
2023-05-20T12:58:19.880Z,5.13
2023-05-20T13:00:46.448Z,5.30
2023-05-20T13:03:13.112Z,6.45
2023-05-20T13:05:39.801Z,5.35
2023-05-20T13:08:06.379Z,4.90
2023-05-20T13:10:33.599Z,4.72
2023-05-20T13:13:00.363Z,5.30
2023-05-20T13:15:26.932Z,5.28
2023-05-20T13:17:54.673Z,4.90
2023-05-20T13:20:21.568Z,5.40
2023-05-20T13:22:54.271Z,5.30
2023-05-20T13:25:21.111Z,5.13
2023-05-20T13:27:47.641Z,4.93
2023-05-20T13:30:14.152Z,4.70
2023-05-20T13:32:41.762Z,4.85
2023-05-20T13:35:09.192Z,4.63
2023-05-20T13:37:35.690Z,5.57
2023-05-20T13:40:02.262Z,5.20
2023-05-20T13:42:28.790Z,4.65
2023-05-20T13:44:55.268Z,5.50
2023-05-20T13:47:22.119Z,5.50
2023-05-20T13:49:48.667Z,4.85
2023-05-20T13:52:15.276Z,4.97
2023-05-20T13:54:43.027Z,5.28
2023-05-20T13:57:10.633Z,5.05
2023-05-20T13:59:38.641Z,5.03
2023-05-20T14:02:05.513Z,5.13
2023-05-20T14:04:36.856Z,4.90
2023-05-20T14:09:30.231Z,5.05
2023-05-20T14:11:56.807Z,5.05
2023-05-20T14:14:23.296Z,5.25
2023-05-20T14:16:49.782Z,5.15
2023-05-20T14:19:16.272Z,5.13
2023-05-20T14:21:42.817Z,5.00
2023-05-20T14:24:09.561Z,5.60
2023-05-20T14:26:36.346Z,4.68
2023-05-20T14:29:03.050Z,4.68
2023-05-20T14:31:29.624Z,5.20
2023-05-20T14:34:02.549Z,4.88
2023-05-20T14:36:29.213Z,5.03
2023-05-20T14:38:55.733Z,5.55
2023-05-20T14:41:22.455Z,4.90
2023-05-20T14:43:49.002Z,5.10
2023-05-20T14:46:16.044Z,4.95
2023-05-20T14:48:43.739Z,5.38
2023-05-20T14:51:10.338Z,5.70
2023-05-20T14:53:36.862Z,4.93
2023-05-20T14:56:03.483Z,5.43
2023-05-20T14:58:30.082Z,5.00
2023-05-20T15:00:56.987Z,5.38
2023-05-20T15:03:24.485Z,5.53
2023-05-20T15:05:52.126Z,5.10
2023-05-20T15:08:18.655Z,5.28
2023-05-20T15:10:45.285Z,5.65
2023-05-20T15:13:12.006Z,5.55
2023-05-20T15:15:38.546Z,4.97
2023-05-20T15:18:05.113Z,5.32
2023-05-20T15:20:31.694Z,5.18
2023-05-20T15:22:59.839Z,5.47
2023-05-20T15:25:27.663Z,5.57
2023-05-20T15:27:55.882Z,5.45
2023-05-20T15:30:22.921Z,6.03
2023-05-20T15:32:49.650Z,6.13
2023-05-20T15:35:16.291Z,5.60
2023-05-20T15:37:42.805Z,6.07
2023-05-20T15:40:09.965Z,5.70
2023-05-20T15:42:36.492Z,6.20
2023-05-20T15:45:03.151Z,5.30
2023-05-20T15:47:29.730Z,5.13
2023-05-20T15:49:57.435Z,5.68
2023-05-20T15:52:24.542Z,5.68
2023-05-20T15:54:51.153Z,5.68
2023-05-20T15:57:17.679Z,5.43
2023-05-20T15:59:44.200Z,5.70
2023-05-20T16:02:10.780Z,5.15
2023-05-20T16:04:37.445Z,5.43
2023-05-20T16:07:04.126Z,5.72
2023-05-20T16:09:31.109Z,5.80
2023-05-20T16:11:57.789Z,5.28
2023-05-20T16:14:24.400Z,5.22
2023-05-20T16:16:51.009Z,5.57
2023-05-20T16:19:17.757Z,5.65
2023-05-20T16:21:44.668Z,5.20
2023-05-20T16:24:11.161Z,5.70
2023-05-20T16:26:38.013Z,5.38
2023-05-20T16:29:04.531Z,5.60
2023-05-20T16:31:31.091Z,5.78
2023-05-20T16:33:58.080Z,5.07
2023-05-20T16:36:24.615Z,5.47
2023-05-20T16:38:51.395Z,4.82
2023-05-20T16:41:18.105Z,5.80
2023-05-20T16:43:44.739Z,4.93
2023-05-20T16:46:12.907Z,5.90
2023-05-20T16:48:40.157Z,6.07
2023-05-20T16:51:06.823Z,5.40
2023-05-20T16:53:33.326Z,5.15
2023-05-20T16:55:59.968Z,5.00
2023-05-20T16:58:26.746Z,5.53
2023-05-20T17:00:55.152Z,5.95
2023-05-20T17:03:21.907Z,6.07
2023-05-20T17:05:48.391Z,5.45
2023-05-20T17:08:15.021Z,5.10
2023-05-20T17:10:41.536Z,5.53
2023-05-20T17:13:08.033Z,6.28
2023-05-20T17:15:37.101Z,5.53
2023-05-20T17:18:04.731Z,6.93
2023-05-20T17:20:32.056Z,8.80
2023-05-20T17:22:58.984Z,5.57
2023-05-20T17:25:25.581Z,6.90
2023-05-20T17:27:52.096Z,5.78
2023-05-20T17:30:19.862Z,5.25
2023-05-20T17:32:46.517Z,5.55
2023-05-20T17:35:13.165Z,5.10
2023-05-20T17:37:39.799Z,5.78
2023-05-20T17:40:06.853Z,4.88
2023-05-20T17:42:33.685Z,5.22
2023-05-20T17:45:00.431Z,5.55
2023-05-20T17:47:28.017Z,5.68
2023-05-20T17:49:54.633Z,6.60
2023-05-20T17:52:21.188Z,5.60
2023-05-20T17:54:48.774Z,6.22
2023-05-20T17:57:15.538Z,5.80
2023-05-20T17:59:42.141Z,5.13
2023-05-20T18:02:08.939Z,4.72
2023-05-20T18:04:35.819Z,5.50
2023-05-20T18:07:03.972Z,7.35
2023-05-20T18:09:31.914Z,6.45
2023-05-20T18:11:58.430Z,5.28
2023-05-20T18:14:26.583Z,5.47
2023-05-20T18:17:00.229Z,6.25
2023-05-20T18:19:26.842Z,5.00
2023-05-20T18:21:53.540Z,6.30
2023-05-20T18:24:20.581Z,5.68
2023-05-20T18:26:48.177Z,5.80
2023-05-20T18:29:14.810Z,5.90
2023-05-20T18:31:43.383Z,5.80
2023-05-20T18:34:10.785Z,6.13
2023-05-20T18:36:37.524Z,5.10
2023-05-20T18:39:04.800Z,5.68
2023-05-20T18:41:43.267Z,5.28
2023-05-20T18:44:13.955Z,6.60
2023-05-20T18:46:40.577Z,5.68
2023-05-20T18:49:07.157Z,13.43
2023-05-20T18:51:33.900Z,6.32
2023-05-20T18:54:00.509Z,19.38
2023-05-20T18:56:27.435Z,8.98
2023-05-20T18:58:55.049Z,7.78
2023-05-20T19:01:21.956Z,6.65
2023-05-20T19:03:48.493Z,6.60
2023-05-20T19:06:16.506Z,5.82
2023-05-20T19:08:43.802Z,6.47
2023-05-20T19:11:11.416Z,8.25
2023-05-20T19:13:38.224Z,8.25
2023-05-20T19:16:04.934Z,6.03
2023-05-20T19:18:31.550Z,13.00
2023-05-20T19:20:58.070Z,7.82
2023-05-20T19:23:24.729Z,9.65
2023-05-20T19:25:51.311Z,6.40
2023-05-20T19:28:17.973Z,8.50
2023-05-20T19:30:44.544Z,9.65
2023-05-20T19:33:11.196Z,7.05
2023-05-20T19:35:37.774Z,11.50
2023-05-20T19:38:05.866Z,9.13
2023-05-20T19:40:32.626Z,7.82
2023-05-20T19:42:59.471Z,11.52
2023-05-20T19:45:26.055Z,6.70
2023-05-20T19:47:52.642Z,11.02
2023-05-20T19:50:19.297Z,7.60
2023-05-20T19:52:45.954Z,12.95
2023-05-20T19:55:12.570Z,6.82
2023-05-20T19:57:39.079Z,11.32
2023-05-20T20:00:07.255Z,12.45
2023-05-20T20:02:33.863Z,7.13
2023-05-20T20:05:01.197Z,7.07
2023-05-20T20:07:27.811Z,10.45
2023-05-20T20:09:55.371Z,8.32
2023-05-20T20:12:22.490Z,11.25
2023-05-20T20:14:49.219Z,7.25
2023-05-20T20:17:17.533Z,7.70
2023-05-20T20:19:48.687Z,12.07
2023-05-20T20:22:16.471Z,7.70
2023-05-20T20:24:42.974Z,10.85
2023-05-20T20:27:09.543Z,9.63
2023-05-20T20:29:36.286Z,8.18
2023-05-20T20:32:03.833Z,8.70
2023-05-20T20:34:30.486Z,11.90
2023-05-20T20:36:57.131Z,11.07
2023-05-20T20:39:25.118Z,9.05
2023-05-20T20:41:52.795Z,10.27
2023-05-20T20:44:22.578Z,9.27
2023-05-20T20:46:54.754Z,9.00
2023-05-20T20:49:23.056Z,11.90
2023-05-20T20:51:51.010Z,7.97
2023-05-20T20:54:17.619Z,6.93
2023-05-20T20:56:46.907Z,7.68
2023-05-20T20:59:15.623Z,8.85
2023-05-20T21:01:42.480Z,6.38
2023-05-20T21:04:13.710Z,7.00
2023-05-20T21:06:42.149Z,7.40
2023-05-20T21:09:09.424Z,7.55
2023-05-20T21:11:38.341Z,7.13
2023-05-20T21:14:06.536Z,7.20
2023-05-20T21:16:33.095Z,6.55
2023-05-20T21:18:59.668Z,6.50
2023-05-20T21:21:26.218Z,6.38
2023-05-20T21:23:54.197Z,6.13
2023-05-20T21:26:24.803Z,7.60
2023-05-20T21:28:52.486Z,7.30
2023-05-20T21:31:19.830Z,6.55
2023-05-20T21:33:46.566Z,6.38
2023-05-20T21:36:13.105Z,7.07
2023-05-20T21:38:39.927Z,6.75
2023-05-20T21:41:06.558Z,6.07
2023-05-20T21:43:33.101Z,6.30
2023-05-20T21:45:59.631Z,6.60
2023-05-20T21:48:27.121Z,6.97
2023-05-20T21:50:53.660Z,6.53
2023-05-20T21:53:21.291Z,6.20
2023-05-20T21:55:47.804Z,6.93
2023-05-20T21:58:14.372Z,6.68
2023-05-20T22:00:41.085Z,6.60
2023-05-20T22:03:07.748Z,6.03
2023-05-20T22:05:34.714Z,6.47
2023-05-20T22:08:01.910Z,5.95
2023-05-20T22:10:28.503Z,6.03
2023-05-20T22:12:55.627Z,6.60
2023-05-20T22:15:23.034Z,6.82
2023-05-20T22:17:49.769Z,6.22
2023-05-20T22:20:16.363Z,6.82
2023-05-20T22:22:42.863Z,6.72
2023-05-20T22:25:12.345Z,6.10
2023-05-20T22:27:39.115Z,6.80
2023-05-20T22:30:08.187Z,6.35
2023-05-20T22:32:34.711Z,6.50
2023-05-20T22:35:01.207Z,6.15
2023-05-20T22:37:28.900Z,6.60
2023-05-20T22:39:56.329Z,6.05
2023-05-20T22:42:22.893Z,6.60
2023-05-20T22:44:49.771Z,6.28
2023-05-20T22:47:16.356Z,6.47
2023-05-20T22:49:42.878Z,6.72
2023-05-20T22:52:09.403Z,6.53
2023-05-20T22:54:35.888Z,6.20
2023-05-20T22:57:02.854Z,6.70
2023-05-20T22:59:32.877Z,6.53
2023-05-20T23:01:59.393Z,6.50
2023-05-20T23:04:26.139Z,6.57
2023-05-20T23:06:53.778Z,6.53
2023-05-20T23:09:21.087Z,6.63
2023-05-20T23:11:47.658Z,6.57
2023-05-20T23:14:14.292Z,6.57
2023-05-20T23:16:42.191Z,6.38
2023-05-20T23:19:09.891Z,6.10
2023-05-20T23:21:37.394Z,6.60
2023-05-20T23:24:04.515Z,6.35
2023-05-20T23:26:31.515Z,6.28
2023-05-20T23:28:58.144Z,6.35
2023-05-20T23:31:26.846Z,6.47
2023-05-20T23:33:58.093Z,5.90
2023-05-20T23:36:25.734Z,6.70
2023-05-20T23:38:55.077Z,6.30
2023-05-20T23:41:22.388Z,6.53
2023-05-20T23:43:49.126Z,6.38
2023-05-20T23:46:15.830Z,6.32
2023-05-20T23:48:44.761Z,6.80
2023-05-20T23:51:13.652Z,6.05
2023-05-20T23:53:41.459Z,6.57
2023-05-20T23:56:09.287Z,7.53
2023-05-20T23:58:36.343Z,7.28
